createdAt,value
2018-10-21T00:00:54.547Z,90.20
2018-10-21T00:05:57.495Z,90.30
2018-10-21T00:11:00.458Z,90.10
2018-10-21T00:16:03.415Z,90.10
2018-10-21T00:21:06.599Z,90.20
2018-10-21T00:26:10.135Z,90.40
2018-10-21T00:31:13.691Z,90.50
2018-10-21T00:36:17.452Z,90.70
2018-10-21T00:41:20.956Z,90.70
2018-10-21T00:46:24.499Z,90.60
2018-10-21T00:51:27.983Z,91.10
2018-10-21T00:56:31.492Z,91.20
2018-10-21T01:01:34.962Z,91.10
2018-10-21T01:06:38.118Z,91.20
2018-10-21T01:11:42.096Z,91.30
2018-10-21T01:16:44.900Z,91.30
2018-10-21T01:21:47.780Z,91.70
2018-10-21T01:26:50.656Z,91.40
2018-10-21T01:31:53.564Z,91.40
2018-10-21T01:36:56.572Z,91.40
2018-10-21T01:41:59.414Z,91.40
2018-10-21T01:47:02.322Z,91.30
2018-10-21T01:52:05.410Z,91.40
2018-10-21T01:57:08.320Z,91.50
2018-10-21T02:02:11.241Z,91.50
2018-10-21T02:07:14.108Z,91.60
2018-10-21T02:12:16.972Z,91.50
2018-10-21T02:17:19.849Z,91.60
2018-10-21T02:22:22.760Z,91.70
2018-10-21T02:27:25.622Z,91.80
2018-10-21T02:32:28.635Z,91.60
2018-10-21T02:37:31.543Z,91.70
2018-10-21T02:42:34.427Z,91.80
2018-10-21T02:47:37.343Z,91.70
2018-10-21T02:52:40.167Z,91.60
2018-10-21T02:57:43.071Z,91.60
2018-10-21T03:02:46.026Z,91.40
2018-10-21T03:07:48.853Z,92.10
2018-10-21T03:12:52.037Z,92.00
2018-10-21T03:17:54.935Z,91.90
2018-10-21T03:22:57.936Z,92.00
2018-10-21T03:28:00.789Z,92.00
2018-10-21T03:33:10.599Z,92.10
2018-10-21T03:38:13.959Z,92.00
2018-10-21T03:43:18.709Z,92.10
2018-10-21T03:48:22.167Z,92.00
2018-10-21T03:53:25.841Z,92.10
2018-10-21T03:58:29.342Z,92.10
2018-10-21T04:03:32.854Z,92.00
2018-10-21T04:08:36.299Z,91.90
2018-10-21T04:13:39.901Z,91.90
2018-10-21T04:18:43.427Z,91.80
2018-10-21T04:23:46.880Z,91.90
2018-10-21T04:28:50.385Z,91.90
2018-10-21T04:33:53.953Z,91.80
2018-10-21T04:40:16.470Z,91.70
2018-10-21T04:45:21.234Z,91.70
2018-10-21T04:50:24.695Z,91.80
2018-10-21T04:55:28.100Z,91.80
2018-10-21T05:00:31.659Z,91.80
2018-10-21T05:05:35.351Z,91.80
2018-10-21T05:10:39.399Z,91.70
2018-10-21T05:15:42.820Z,91.60
2018-10-21T05:20:46.293Z,91.80
2018-10-21T05:25:49.988Z,91.70
2018-10-21T05:30:53.512Z,91.50
2018-10-21T05:35:57.092Z,91.40
2018-10-21T05:41:00.602Z,91.40
2018-10-21T05:46:04.564Z,91.50
2018-10-21T05:51:07.992Z,91.50
2018-10-21T05:56:11.486Z,91.40
2018-10-21T06:01:14.967Z,91.40
2018-10-21T06:06:18.484Z,91.40
2018-10-21T06:11:22.383Z,91.30
2018-10-21T06:16:26.821Z,91.50
2018-10-21T06:21:30.795Z,91.60
2018-10-21T06:26:34.429Z,92.00
2018-10-21T06:31:37.905Z,91.80
2018-10-21T06:36:41.649Z,91.80
2018-10-21T06:41:45.074Z,91.90
2018-10-21T06:46:48.625Z,92.00
2018-10-21T06:51:52.316Z,92.30
2018-10-21T06:56:55.918Z,92.00
2018-10-21T07:01:59.576Z,92.00
2018-10-21T07:07:03.328Z,92.00
2018-10-21T07:12:07.810Z,92.10
2018-10-21T07:17:11.329Z,92.10
2018-10-21T07:22:14.900Z,92.00
2018-10-21T07:27:18.398Z,92.00
2018-10-21T07:32:21.810Z,91.80
2018-10-21T07:37:25.590Z,91.90
2018-10-21T07:42:29.057Z,91.70
2018-10-21T07:47:32.699Z,91.40
2018-10-21T07:52:36.208Z,91.30
2018-10-21T07:57:39.828Z,91.20
2018-10-21T08:02:43.340Z,90.90
2018-10-21T08:07:57.787Z,90.90
2018-10-21T08:13:00.969Z,90.90
2018-10-21T08:18:04.139Z,90.60
2018-10-21T08:23:09.794Z,90.50
2018-10-21T08:28:12.717Z,90.30
2018-10-21T08:33:16.348Z,90.60
2018-10-21T08:38:19.872Z,90.00
2018-10-21T08:43:23.507Z,88.60
2018-10-21T08:48:27.042Z,87.50
2018-10-21T08:53:30.845Z,87.10
2018-10-21T08:58:34.439Z,87.40
2018-10-21T09:03:37.975Z,88.00
2018-10-21T09:08:41.484Z,88.30
2018-10-21T09:13:44.978Z,88.10
2018-10-21T09:18:48.452Z,88.80
2018-10-21T09:23:52.115Z,88.90
2018-10-21T09:28:55.724Z,88.50
2018-10-21T09:34:14.258Z,88.30
2018-10-21T09:39:17.816Z,88.40
2018-10-21T09:44:21.377Z,88.50
2018-10-21T09:49:25.921Z,88.20
2018-10-21T09:54:29.420Z,87.50
2018-10-21T09:59:33.158Z,86.90
2018-10-21T10:04:36.695Z,86.50
2018-10-21T10:09:40.298Z,85.80
2018-10-21T10:14:44.331Z,86.20
2018-10-21T10:19:47.929Z,84.50
2018-10-21T10:24:51.469Z,83.80
2018-10-21T10:29:55.084Z,83.50
2018-10-21T10:34:58.571Z,83.70
2018-10-21T10:40:02.183Z,84.30
2018-10-21T10:45:07.836Z,83.30
2018-10-21T10:50:11.703Z,83.20
2018-10-21T10:55:15.446Z,83.20
2018-10-21T11:00:18.911Z,82.20
2018-10-21T11:05:22.512Z,81.60
2018-10-21T11:10:25.986Z,81.60
2018-10-21T11:15:29.786Z,79.80
2018-10-21T11:20:33.490Z,79.80
2018-10-21T11:25:37.046Z,80.50
2018-10-21T11:30:40.603Z,80.50
2018-10-21T11:35:44.089Z,78.80
2018-10-21T11:40:47.616Z,77.80
2018-10-21T11:45:51.258Z,77.70
2018-10-21T11:50:54.700Z,78.80
2018-10-21T11:55:58.149Z,77.40
2018-10-21T12:01:01.717Z,77.40
2018-10-21T12:06:05.829Z,77.30
2018-10-21T12:11:09.388Z,77.10
2018-10-21T12:16:12.960Z,75.80
2018-10-21T12:21:16.516Z,75.10
2018-10-21T12:26:19.956Z,73.70
2018-10-21T12:31:23.463Z,73.90
2018-10-21T12:36:26.993Z,74.70
2018-10-21T12:41:30.535Z,73.10
2018-10-21T12:46:34.101Z,72.60
2018-10-21T12:51:37.663Z,72.60
2018-10-21T12:56:41.274Z,72.60
2018-10-21T13:01:44.846Z,72.70
2018-10-21T13:06:48.334Z,71.80
2018-10-21T13:11:51.792Z,72.20
2018-10-21T13:16:55.266Z,72.20
2018-10-21T13:21:58.778Z,72.30
2018-10-21T13:27:02.314Z,72.40
2018-10-21T13:32:06.935Z,71.50
2018-10-21T13:37:10.461Z,71.20
2018-10-21T13:42:13.940Z,72.10
2018-10-21T13:47:17.492Z,72.30
2018-10-21T13:52:20.993Z,71.70
2018-10-21T13:57:24.447Z,72.50
2018-10-21T14:02:28.893Z,72.90
2018-10-21T14:07:32.521Z,73.40
2018-10-21T14:12:36.032Z,72.50
2018-10-21T14:17:39.535Z,72.90
2018-10-21T14:22:43.276Z,72.80
2018-10-21T14:27:46.779Z,72.10
2018-10-21T14:32:50.355Z,71.40
2018-10-21T14:37:54.242Z,72.00
2018-10-21T14:42:57.738Z,71.80
2018-10-21T14:48:01.249Z,72.00
2018-10-21T14:53:05.141Z,71.30
2018-10-21T14:58:08.680Z,71.50
2018-10-21T15:03:12.224Z,71.90
2018-10-21T15:08:16.034Z,72.90
2018-10-21T15:13:19.677Z,72.90
2018-10-21T15:18:23.185Z,72.90
2018-10-21T15:23:26.811Z,73.00
2018-10-21T15:28:30.295Z,73.40
2018-10-21T15:33:33.977Z,73.50
2018-10-21T15:38:37.511Z,73.10
2018-10-21T15:43:41.609Z,72.40
2018-10-21T15:48:45.228Z,71.80
2018-10-21T15:53:48.786Z,71.60
2018-10-21T15:58:52.359Z,72.50
2018-10-21T16:03:56.067Z,72.30
2018-10-21T16:08:59.558Z,72.20
2018-10-21T16:14:03.387Z,69.50
2018-10-21T16:19:06.924Z,70.50
2018-10-21T16:24:10.440Z,71.30
2018-10-21T16:29:14.339Z,71.30
2018-10-21T16:34:18.979Z,72.40
2018-10-21T16:39:22.382Z,72.00
2018-10-21T16:44:25.967Z,71.30
2018-10-21T16:49:29.703Z,71.30
2018-10-21T16:54:33.306Z,71.10
2018-10-21T16:59:37.475Z,71.20
2018-10-21T17:04:41.031Z,71.60
2018-10-21T17:09:45.007Z,72.10
2018-10-21T17:14:48.669Z,72.30
2018-10-21T17:19:52.273Z,72.50
2018-10-21T17:24:55.820Z,72.40
2018-10-21T17:29:59.303Z,72.50
2018-10-21T17:35:02.873Z,72.30
2018-10-21T17:40:10.536Z,72.40
2018-10-21T17:45:14.737Z,72.50
2018-10-21T17:50:18.307Z,72.50
2018-10-21T17:55:21.844Z,72.50
2018-10-21T18:00:25.516Z,72.40
2018-10-21T18:05:29.077Z,72.50
2018-10-21T18:10:32.526Z,72.70
2018-10-21T18:15:36.036Z,72.80
2018-10-21T18:20:39.557Z,73.00
2018-10-21T18:25:43.575Z,72.70
2018-10-21T18:30:47.403Z,73.10
2018-10-21T18:35:50.928Z,73.00
2018-10-21T18:40:54.592Z,73.10
2018-10-21T18:45:58.198Z,73.00
2018-10-21T18:51:01.849Z,73.00
2018-10-21T18:56:05.666Z,73.20
2018-10-21T19:01:09.176Z,73.50
2018-10-21T19:06:12.675Z,73.50
2018-10-21T19:11:16.382Z,73.80
2018-10-21T19:16:19.838Z,74.20
2018-10-21T19:21:23.351Z,74.40
2018-10-21T19:26:26.848Z,74.40
2018-10-21T19:31:30.281Z,74.80
2018-10-21T19:36:33.735Z,74.80
2018-10-21T19:41:37.191Z,74.60
2018-10-21T19:46:40.743Z,74.50
2018-10-21T19:51:44.608Z,74.90
2018-10-21T19:56:48.145Z,73.70
2018-10-21T20:01:51.640Z,73.70
2018-10-21T20:06:55.152Z,73.80
2018-10-21T20:11:58.719Z,74.20
2018-10-21T20:17:02.245Z,74.10
2018-10-21T20:22:11.525Z,74.10
2018-10-21T20:27:14.971Z,73.90
2018-10-21T20:32:18.388Z,73.80
2018-10-21T20:37:22.413Z,74.30
2018-10-21T20:42:25.945Z,73.70
2018-10-21T20:47:29.508Z,74.20
2018-10-21T20:52:33.037Z,73.30
2018-10-21T20:57:36.608Z,73.60
2018-10-21T21:02:40.123Z,73.70
2018-10-21T21:07:43.620Z,73.50
2018-10-21T21:12:47.224Z,73.90
2018-10-21T21:17:50.754Z,75.60
2018-10-21T21:22:54.641Z,74.60
2018-10-21T21:27:58.236Z,73.40
2018-10-21T21:33:01.683Z,73.70
2018-10-21T21:38:06.141Z,72.70
2018-10-21T21:43:09.628Z,71.80
2018-10-21T21:48:13.216Z,72.70
2018-10-21T21:53:16.618Z,73.40
2018-10-21T21:58:20.257Z,74.10
2018-10-21T22:03:23.664Z,74.20
2018-10-21T22:08:27.108Z,75.10
2018-10-21T22:13:30.571Z,75.00
2018-10-21T22:18:34.391Z,76.40
2018-10-21T22:23:37.855Z,76.20
2018-10-21T22:28:41.408Z,76.70
2018-10-21T22:33:44.956Z,76.70
2018-10-21T22:38:48.429Z,76.70
2018-10-21T22:43:52.083Z,76.40
2018-10-21T22:48:55.588Z,76.50
2018-10-21T22:53:59.072Z,75.80
2018-10-21T22:59:02.549Z,75.70
2018-10-21T23:04:06.038Z,75.50
2018-10-21T23:09:10.680Z,76.10
2018-10-21T23:14:14.143Z,76.10
2018-10-21T23:19:37.633Z,76.50
2018-10-21T23:24:41.480Z,76.50
2018-10-21T23:29:45.133Z,76.70
2018-10-21T23:34:48.616Z,76.90
2018-10-21T23:39:52.339Z,76.50
2018-10-21T23:44:55.745Z,76.60
2018-10-21T23:49:59.221Z,76.80
2018-10-21T23:55:02.780Z,76.40
